Kansas City, Missouri
Traffic Map
Current Weather Conditions
Kansas City, Missouri
Clear
Clear

Feels Like: -2°
Wind Chill: -2° Ceiling: Unl
Heat Index: Visibility: 10mi
Dew Point: -8° Wind: 13mph
Humidity: 46% Direction: 340° (NNW)
Pressure: 30.03in Gusts: 24mph
Raw Report DataKMKC 061554Z 34011G21KT 10SM CLR 02/M08 A3003 RMK AO2 SLP174 T00221083
Traffic Incident Summary
Active as of:
Severity:
Category:
InformationThere was an issue retrieving the traffic information for this location. Please try a different location or try again shortly.
Advertisements
Track Severe Weather on mobile